Time;durP1;ratioP1;P1;durP2;ratioP2;P2;SDS_P1;SDS_P2;PMS_P1;PMS_P2;Temp;Humidity;BMP_temperature;BMP_pressure;BME280_temperature;BME280_humidity;BME280_pressure;Samples;Min_cycle;Max_cycle;Signal;HPM_P1;HPM_P2
2023/01/19 00:01:22;;;;;;;37.27;25.47;;;2.40;99.90;;;;;;5038939;28;20036;-78
2023/01/19 00:03:49;;;;;;;37.77;25.63;;;2.40;99.90;;;;;;5056734;28;20041;-78
2023/01/19 00:06:15;;;;;;;36.17;25.53;;;2.40;99.90;;;;;;5039496;28;20037;-78
2023/01/19 00:08:47;;;;;;;36.10;25.07;;;2.40;99.90;;;;;;5048393;28;20028;-78
2023/01/19 00:11:14;;;;;;;33.03;24.70;;;2.50;99.90;;;;;;5040538;28;20040;-75
2023/01/19 00:13:40;;;;;;;39.17;25.90;;;2.50;99.90;;;;;;5040518;28;20029;-78
2023/01/19 00:16:06;;;;;;;40.93;28.33;;;2.50;99.90;;;;;;5042691;28;20033;-77
2023/01/19 00:18:33;;;;;;;35.50;26.87;;;2.50;99.90;;;;;;5009840;28;20483;-78
2023/01/19 00:20:59;;;;;;;34.33;25.93;;;2.50;99.90;;;;;;5009918;28;21366;-76
2023/01/19 00:23:25;;;;;;;40.30;27.43;;;2.50;99.90;;;;;;5005831;28;20052;-77
2023/01/19 00:25:52;;;;;;;39.80;27.87;;;2.50;99.90;;;;;;5043291;28;20825;-77
2023/01/19 00:28:18;;;;;;;38.50;26.63;;;2.60;99.90;;;;;;5040711;28;20041;-76
2023/01/19 00:30:45;;;;;;;37.58;25.05;;;2.60;99.90;;;;;;5041239;28;20037;-76
2023/01/19 00:33:14;;;;;;;35.40;25.10;;;2.60;99.90;;;;;;5036034;28;20503;-77
2023/01/19 00:35:41;;;;;;;41.37;26.13;;;2.60;99.90;;;;;;5041538;28;20037;-76
2023/01/19 00:38:08;;;;;;;39.47;27.43;;;2.60;99.90;;;;;;5012799;28;20059;-76
2023/01/19 00:40:34;;;;;;;39.77;28.07;;;2.60;99.90;;;;;;5026975;28;20064;-77
2023/01/19 00:43:02;;;;;;;42.13;28.77;;;2.60;99.90;;;;;;5037040;28;20072;-77
2023/01/19 00:45:29;;;;;;;43.17;27.20;;;2.60;99.90;;;;;;5020523;28;20048;-77
2023/01/19 00:47:56;;;;;;;40.08;27.63;;;2.60;99.90;;;;;;5046836;28;20056;-77
2023/01/19 00:50:24;;;;;;;41.20;28.60;;;2.60;99.90;;;;;;5027275;28;20494;-77
2023/01/19 00:52:51;;;;;;;41.77;28.73;;;2.50;99.90;;;;;;5020652;28;20051;-76
2023/01/19 00:55:18;;;;;;;36.43;25.60;;;2.60;99.90;;;;;;5020812;28;20041;-77
2023/01/19 00:57:44;;;;;;;39.75;27.00;;;2.50;99.90;;;;;;5038674;28;20037;-77
2023/01/19 01:00:13;;;;;;;48.30;29.25;;;2.50;99.90;;;;;;5043746;28;20036;-78
2023/01/19 01:02:41;;;;;;;42.73;28.50;;;2.50;99.90;;;;;;5041780;28;20041;-77
2023/01/19 01:05:09;;;;;;;37.03;26.33;;;2.50;99.90;;;;;;5047817;28;20037;-77
2023/01/19 01:07:39;;;;;;;49.40;31.60;;;2.60;99.90;;;;;;5049941;28;20045;-78
2023/01/19 01:10:08;;;;;;;45.50;29.17;;;2.60;99.90;;;;;;5029285;28;20049;-77
2023/01/19 01:12:35;;;;;;;40.77;29.03;;;2.50;99.90;;;;;;5042200;28;20055;-78
2023/01/19 01:15:01;;;;;;;40.60;27.20;;;2.50;99.90;;;;;;5026259;28;20048;-77
2023/01/19 01:17:28;;;;;;;45.13;30.65;;;2.50;99.90;;;;;;5034432;28;20476;-78
2023/01/19 01:19:54;;;;;;;45.43;28.73;;;2.50;99.90;;;;;;5028332;28;20037;-77
2023/01/19 01:22:20;;;;;;;38.60;28.10;;;2.50;99.90;;;;;;5024745;28;20396;-76
2023/01/19 01:24:47;;;;;;;40.20;27.90;;;2.50;99.90;;;;;;5045659;28;20060;-77
2023/01/19 01:27:13;;;;;;;34.87;26.77;;;2.50;99.90;;;;;;5046347;28;20037;-77
2023/01/19 01:29:41;;;;;;;44.67;29.67;;;2.50;99.90;;;;;;5047313;28;20025;-78
2023/01/19 01:32:08;;;;;;;43.80;28.90;;;2.50;99.90;;;;;;5031043;28;20571;-77
2023/01/19 01:34:35;;;;;;;39.03;26.50;;;2.50;99.90;;;;;;5016704;28;20045;-75
2023/01/19 01:37:01;;;;;;;46.70;29.23;;;2.50;99.90;;;;;;5029558;28;20041;-77
2023/01/19 01:39:28;;;;;;;40.53;26.70;;;2.50;99.90;;;;;;5037831;28;20041;-77
2023/01/19 01:41:54;;;;;;;40.63;26.50;;;2.50;99.90;;;;;;5025278;28;21331;-78
2023/01/19 01:44:48;;;;;;;43.23;28.53;;;2.50;99.90;;;;;;5027727;28;20040;-78
2023/01/19 01:47:39;;;;;;;36.63;25.60;;;2.50;99.90;;;;;;5035806;28;20052;-77
2023/01/19 01:50:16;;;;;;;37.40;26.77;;;2.50;99.90;;;;;;5017373;28;20046;-78
2023/01/19 01:52:53;;;;;;;32.70;22.40;;;2.50;99.90;;;;;;5024782;28;20049;-77
2023/01/19 01:55:22;;;;;;;38.23;25.50;;;2.50;99.90;;;;;;5040195;28;20044;-78
2023/01/19 01:57:53;;;;;;;30.27;24.20;;;2.50;99.90;;;;;;5047273;28;20036;-77
2023/01/19 02:00:19;;;;;;;30.75;22.73;;;2.50;99.90;;;;;;5028137;28;20059;-79
2023/01/19 02:02:53;;;;;;;32.60;24.13;;;2.50;99.90;;;;;;5023362;28;20056;-78
2023/01/19 02:05:33;;;;;;;27.60;21.13;;;2.50;99.90;;;;;;5048397;28;20024;-79
2023/01/19 02:13:45;;;;;;;31.43;22.37;;;2.30;99.90;;;;;;5043858;28;20033;-80
2023/01/19 02:16:12;;;;;;;;;;;2.20;99.90;;;;;;5044204;28;20044;-81
2023/01/19 02:18:39;;;;;;;32.90;24.00;;;2.10;99.90;;;;;;5012565;28;20406;-78
2023/01/19 02:21:22;;;;;;;34.80;24.00;;;2.10;99.90;;;;;;5013592;28;20072;-76
2023/01/19 02:23:51;;;;;;;31.27;23.10;;;2.10;99.90;;;;;;5024509;28;20053;-76
2023/01/19 02:26:24;;;;;;;33.40;25.47;;;2.00;99.90;;;;;;5045900;28;20468;-79
2023/01/19 02:29:01;;;;;;;33.80;23.33;;;2.00;99.90;;;;;;5046984;28;20659;-80
2023/01/19 02:31:29;;;;;;;32.43;23.13;;;2.00;99.90;;;;;;5042816;28;20029;-82
2023/01/19 02:33:57;;;;;;;33.73;23.70;;;2.00;99.90;;;;;;5043635;28;20499;-82
2023/01/19 02:36:29;;;;;;;24.27;19.20;;;1.90;99.90;;;;;;5045881;28;20044;-81
2023/01/19 02:38:59;;;;;;;31.30;23.02;;;1.90;99.90;;;;;;5047215;28;20632;-81
2023/01/19 02:41:33;;;;;;;29.70;22.87;;;1.80;99.90;;;;;;5044357;28;20083;-80
2023/01/19 02:44:00;;;;;;;30.13;22.83;;;1.70;99.90;;;;;;5038912;28;20037;-79
2023/01/19 02:46:27;;;;;;;29.30;22.43;;;1.70;99.90;;;;;;5031927;28;20044;-81
2023/01/19 02:48:58;;;;;;;30.63;23.60;;;1.70;99.90;;;;;;5028674;28;20535;-80
2023/01/19 02:51:25;;;;;;;30.50;22.07;;;1.60;99.90;;;;;;5024468;28;20041;-78
2023/01/19 02:54:03;;;;;;;33.77;23.63;;;1.60;99.90;;;;;;5043594;28;20028;-78
2023/01/19 02:56:48;;;;;;;34.20;23.43;;;1.60;99.90;;;;;;5029610;28;20408;-77
2023/01/19 02:59:32;;;;;;;34.50;25.93;;;1.60;99.90;;;;;;5061610;28;20037;-78
2023/01/19 03:02:21;;;;;;;30.97;22.97;;;1.50;99.90;;;;;;5025631;28;20499;-78
2023/01/19 03:05:13;;;;;;;35.50;25.20;;;1.50;99.90;;;;;;5042373;28;20510;-76
2023/01/19 03:08:06;;;;;;;33.58;24.10;;;1.50;99.90;;;;;;5045783;28;20052;-78
2023/01/19 03:10:56;;;;;;;30.52;22.85;;;1.50;99.90;;;;;;5037413;28;20042;-77
2023/01/19 03:13:30;;;;;;;31.20;22.07;;;1.50;99.90;;;;;;5040266;28;20029;-76
2023/01/19 03:16:19;;;;;;;33.67;22.90;;;1.50;99.90;;;;;;5026856;28;20064;-77
2023/01/19 03:19:03;;;;;;;23.27;19.30;;;1.50;99.90;;;;;;5038330;28;20040;-77
2023/01/19 03:21:33;;;;;;;32.43;23.80;;;1.60;99.90;;;;;;5040628;28;20048;-78
2023/01/19 03:24:03;;;;;;;28.13;21.47;;;1.50;99.90;;;;;;5020955;28;20941;-78
2023/01/19 03:26:34;;;;;;;20.97;17.17;;;1.60;99.90;;;;;;5044078;28;20029;-77
2023/01/19 03:29:02;;;;;;;21.73;17.25;;;1.50;99.90;;;;;;5042773;28;20773;-77
2023/01/19 03:31:31;;;;;;;21.97;16.50;;;1.50;99.90;;;;;;5024399;28;20067;-78
2023/01/19 03:34:05;;;;;;;22.00;16.80;;;1.50;99.90;;;;;;5038335;28;20492;-78
2023/01/19 03:36:42;;;;;;;18.43;15.43;;;1.50;99.90;;;;;;5046008;28;20427;-77
2023/01/19 03:39:11;;;;;;;19.47;15.73;;;1.50;99.90;;;;;;5043134;28;20037;-77
2023/01/19 03:41:40;;;;;;;22.77;16.53;;;1.50;99.90;;;;;;5040908;28;20051;-75
2023/01/19 03:44:06;;;;;;;21.87;16.20;;;1.50;99.90;;;;;;5036992;28;20056;-78
2023/01/19 03:46:33;;;;;;;17.37;14.80;;;1.50;99.90;;;;;;5044407;28;20037;-77
2023/01/19 03:48:59;;;;;;;19.52;13.50;;;1.50;99.90;;;;;;5044467;28;20037;-76
2023/01/19 03:51:26;;;;;;;19.47;13.80;;;1.50;99.90;;;;;;5011303;28;20040;-77
2023/01/19 03:53:52;;;;;;;14.73;10.10;;;1.50;99.90;;;;;;5036646;28;20400;-76
2023/01/19 03:56:21;;;;;;;12.57;9.50;;;1.50;99.90;;;;;;5027571;28;20041;-77
2023/01/19 03:58:48;;;;;;;14.10;10.40;;;1.50;99.90;;;;;;5046328;28;20037;-78
2023/01/19 04:01:15;;;;;;;12.27;8.93;;;1.50;99.90;;;;;;5029827;28;20404;-77
2023/01/19 04:03:41;;;;;;;10.43;6.77;;;1.60;99.90;;;;;;5019683;28;20033;-77
2023/01/19 04:06:09;;;;;;;10.07;5.83;;;1.60;99.90;;;;;;5044055;28;20503;-77
2023/01/19 04:08:35;;;;;;;7.63;5.00;;;1.60;99.90;;;;;;5047490;28;20047;-78
2023/01/19 04:11:02;;;;;;;8.87;5.83;;;1.60;99.90;;;;;;5024127;28;20048;-77
2023/01/19 04:13:29;;;;;;;7.00;4.30;;;1.70;99.90;;;;;;5022801;28;20044;-78
2023/01/19 04:16:03;;;;;;;6.83;4.80;;;1.70;99.90;;;;;;5027647;28;20040;-77
2023/01/19 04:18:31;;;;;;;6.20;4.10;;;1.70;99.90;;;;;;5026814;28;20036;-77
2023/01/19 04:21:06;;;;;;;5.10;3.80;;;1.80;99.90;;;;;;5014666;28;20037;-76
2023/01/19 04:23:32;;;;;;;6.13;3.23;;;1.80;99.90;;;;;;5035991;28;20056;-77
2023/01/19 04:26:01;;;;;;;5.30;2.40;;;1.80;99.90;;;;;;5030616;28;20063;-77
2023/01/19 04:28:28;;;;;;;4.97;2.40;;;1.80;99.90;;;;;;5043563;28;20612;-77
2023/01/19 04:30:54;;;;;;;4.73;2.43;;;1.90;99.90;;;;;;5042466;28;20037;-75
2023/01/19 04:33:21;;;;;;;5.23;2.10;;;1.90;99.90;;;;;;5034356;28;20491;-75
2023/01/19 04:35:50;;;;;;;6.57;2.07;;;1.90;99.90;;;;;;5048153;28;20040;-78
2023/01/19 04:38:16;;;;;;;3.37;1.50;;;1.90;99.90;;;;;;5048900;28;20044;-77
2023/01/19 04:40:42;;;;;;;4.77;1.57;;;1.90;99.90;;;;;;5046759;28;20626;-75
2023/01/19 04:43:09;;;;;;;4.33;1.97;;;1.90;99.90;;;;;;5040122;28;20480;-75
2023/01/19 04:45:35;;;;;;;6.53;2.20;;;1.90;99.90;;;;;;5045991;28;20040;-76
2023/01/19 04:48:05;;;;;;;4.40;1.90;;;1.90;99.90;;;;;;5030628;28;20041;-75
2023/01/19 04:50:32;;;;;;;3.80;1.40;;;1.90;99.90;;;;;;5048991;28;20510;-75
2023/01/19 04:52:58;;;;;;;5.72;1.48;;;1.90;99.90;;;;;;5019532;28;20044;-75
2023/01/19 04:55:24;;;;;;;3.70;1.27;;;1.80;99.90;;;;;;5036000;28;20434;-76
2023/01/19 04:57:51;;;;;;;5.47;1.70;;;1.80;99.90;;;;;;5035161;28;20044;-76
2023/01/19 05:00:17;;;;;;;5.20;2.00;;;1.80;99.90;;;;;;5041135;28;20480;-75
2023/01/19 05:02:44;;;;;;;5.07;1.93;;;1.80;99.90;;;;;;5019315;28;20045;-75
2023/01/19 05:05:10;;;;;;;6.50;2.60;;;1.80;99.90;;;;;;5031610;28;20048;-76
2023/01/19 05:07:37;;;;;;;5.93;3.03;;;1.90;99.90;;;;;;5014221;28;20041;-75
2023/01/19 05:10:05;;;;;;;6.30;3.20;;;1.90;99.90;;;;;;5031611;28;20511;-75
2023/01/19 05:12:32;;;;;;;6.87;3.77;;;1.80;99.90;;;;;;5006278;28;20033;-74
2023/01/19 05:14:58;;;;;;;6.67;3.53;;;1.80;99.90;;;;;;5040423;28;20032;-75
2023/01/19 05:17:25;;;;;;;8.57;2.87;;;1.90;99.90;;;;;;5050625;28;20036;-75
2023/01/19 05:19:51;;;;;;;6.53;3.80;;;1.90;99.90;;;;;;5031625;28;20049;-76
2023/01/19 05:22:17;;;;;;;8.83;4.07;;;1.90;99.90;;;;;;5041278;28;20032;-73
2023/01/19 05:24:43;;;;;;;9.93;3.80;;;1.90;99.90;;;;;;5027285;28;20041;-75
2023/01/19 05:27:10;;;;;;;11.50;4.60;;;1.90;99.90;;;;;;5049070;28;20041;-76
2023/01/19 05:29:36;;;;;;;8.77;3.97;;;1.90;99.90;;;;;;5048803;28;20439;-75
2023/01/19 05:32:03;;;;;;;10.67;4.10;;;1.90;99.90;;;;;;5031465;28;20037;-75
2023/01/19 05:34:29;;;;;;;8.33;3.70;;;1.80;99.90;;;;;;5016942;28;20040;-75
2023/01/19 05:36:55;;;;;;;8.83;3.47;;;1.80;99.90;;;;;;5014937;28;20044;-75
2023/01/19 05:39:22;;;;;;;7.80;4.33;;;1.80;99.90;;;;;;5048009;28;20036;-75
2023/01/19 05:41:48;;;;;;;9.60;3.73;;;1.80;99.90;;;;;;5042693;28;20481;-75
2023/01/19 05:44:14;;;;;;;9.30;4.00;;;1.80;99.90;;;;;;5024096;28;20312;-75
2023/01/19 05:46:40;;;;;;;7.70;3.78;;;1.90;99.90;;;;;;5029648;28;20034;-75
2023/01/19 05:49:07;;;;;;;10.87;3.10;;;1.90;99.90;;;;;;5030973;28;20037;-75
2023/01/19 05:51:37;;;;;;;9.00;3.07;;;1.90;99.90;;;;;;5045423;28;20021;-74
2023/01/19 05:54:04;;;;;;;5.97;2.20;;;1.90;99.90;;;;;;5024334;28;20048;-75
2023/01/19 05:56:31;;;;;;;6.20;1.90;;;1.90;99.90;;;;;;5047374;28;20032;-75
2023/01/19 05:58:58;;;;;;;8.37;2.20;;;1.90;99.90;;;;;;5030383;28;20041;-75
2023/01/19 06:01:25;;;;;;;7.33;1.77;;;1.90;99.90;;;;;;5030350;28;20041;-74
2023/01/19 06:03:51;;;;;;;12.27;1.70;;;1.90;99.90;;;;;;5023929;28;20041;-75
2023/01/19 06:06:18;;;;;;;11.40;1.70;;;1.90;99.90;;;;;;5050293;28;20021;-75
2023/01/19 06:08:44;;;;;;;9.03;1.80;;;1.90;99.90;;;;;;5049194;28;20083;-75
2023/01/19 06:11:11;;;;;;;5.87;1.50;;;1.90;99.90;;;;;;5044338;28;20041;-74
2023/01/19 06:13:40;;;;;;;8.67;2.00;;;1.90;99.90;;;;;;5040002;28;20411;-73
2023/01/19 06:16:07;;;;;;;9.20;1.70;;;1.90;99.90;;;;;;5041868;28;20037;-74
2023/01/19 06:18:33;;;;;;;10.27;1.63;;;1.90;99.90;;;;;;5037472;28;20049;-74
2023/01/19 06:21:05;;;;;;;6.70;1.47;;;1.90;99.90;;;;;;5039002;28;20502;-75
2023/01/19 06:23:32;;;;;;;8.80;2.37;;;1.90;99.90;;;;;;5018063;28;20056;-75
2023/01/19 06:25:59;;;;;;;16.53;2.90;;;1.90;99.90;;;;;;5014739;28;20048;-75
2023/01/19 06:28:26;;;;;;;5.43;1.90;;;1.90;99.90;;;;;;5024420;28;20025;-74
2023/01/19 06:30:54;;;;;;;6.97;1.97;;;2.00;99.90;;;;;;5025844;28;20037;-75
2023/01/19 06:33:21;;;;;;;10.40;1.73;;;2.00;99.90;;;;;;5034841;28;20026;-76
2023/01/19 06:35:50;;;;;;;12.70;1.80;;;2.00;99.90;;;;;;5040535;28;20052;-76
2023/01/19 06:38:18;;;;;;;9.70;2.13;;;2.00;99.90;;;;;;5028378;28;20439;-75
2023/01/19 06:40:53;;;;;;;6.47;1.40;;;2.10;99.90;;;;;;5020373;28;20303;-74
2023/01/19 06:43:20;;;;;;;11.57;1.10;;;2.10;99.90;;;;;;5014803;28;20692;-74
2023/01/19 06:45:47;;;;;;;11.97;1.67;;;2.20;99.90;;;;;;5042404;28;20041;-75
2023/01/19 06:48:14;;;;;;;13.70;1.57;;;2.10;99.90;;;;;;5014473;28;20037;-74
2023/01/19 06:50:43;;;;;;;11.70;1.17;;;2.10;99.90;;;;;;5032620;28;20040;-74
2023/01/19 06:53:09;;;;;;;13.20;1.60;;;2.10;99.90;;;;;;5013868;28;20029;-74
2023/01/19 06:55:36;;;;;;;10.70;1.40;;;2.00;99.90;;;;;;5023505;28;20041;-73
2023/01/19 06:58:02;;;;;;;8.90;1.93;;;2.00;99.90;;;;;;5045681;28;20290;-74
2023/01/19 07:00:29;;;;;;;7.37;1.17;;;2.00;99.90;;;;;;5038263;28;20048;-74
2023/01/19 07:02:55;;;;;;;7.70;1.43;;;1.90;99.90;;;;;;5028354;28;20037;-73
2023/01/19 07:05:21;;;;;;;16.07;1.40;;;1.90;99.90;;;;;;5035197;28;20029;-74
2023/01/19 07:07:55;;;;;;;17.90;1.60;;;2.00;99.90;;;;;;5019342;28;20029;-74
2023/01/19 07:10:23;;;;;;;11.33;1.83;;;2.00;99.90;;;;;;5037588;28;20513;-74
2023/01/19 07:12:49;;;;;;;12.70;1.90;;;2.00;99.90;;;;;;5036995;28;20048;-74
2023/01/19 07:15:21;;;;;;;15.23;3.17;;;2.00;99.90;;;;;;5029397;28;20039;-74
2023/01/19 07:17:47;;;;;;;13.75;3.05;;;2.00;99.90;;;;;;5027262;28;20070;-74
2023/01/19 07:20:14;;;;;;;15.83;4.33;;;2.00;99.90;;;;;;5030546;28;20044;-74
2023/01/19 07:22:42;;;;;;;13.57;4.70;;;2.00;99.90;;;;;;5058154;28;20516;-74
2023/01/19 07:25:09;;;;;;;17.37;4.13;;;2.00;99.90;;;;;;5045171;28;20036;-74
2023/01/19 07:27:35;;;;;;;14.93;4.73;;;2.10;99.90;;;;;;5028210;28;20037;-74
2023/01/19 07:30:03;;;;;;;18.40;5.53;;;2.10;99.90;;;;;;5044721;28;20412;-75
2023/01/19 07:32:29;;;;;;;16.47;4.50;;;2.20;99.90;;;;;;5040456;28;20025;-74
2023/01/19 07:34:55;;;;;;;11.60;4.40;;;2.20;99.90;;;;;;5027587;28;20037;-75
2023/01/19 07:37:22;;;;;;;22.90;5.70;;;2.20;99.90;;;;;;5044134;28;20040;-75
2023/01/19 07:39:48;;;;;;;21.97;10.03;;;2.20;99.90;;;;;;5045791;28;20040;-74
2023/01/19 07:42:14;;;;;;;15.37;4.90;;;2.40;99.90;;;;;;5025285;28;20033;-76
2023/01/19 07:44:41;;;;;;;17.53;3.40;;;2.40;99.90;;;;;;5048257;28;20048;-75
2023/01/19 07:47:10;;;;;;;17.87;4.40;;;2.40;99.90;;;;;;5042071;28;20037;-75
2023/01/19 07:49:36;;;;;;;21.70;7.20;;;2.40;99.90;;;;;;5023999;28;20037;-75
2023/01/19 07:52:02;;;;;;;19.93;7.13;;;2.40;99.90;;;;;;5036947;28;20051;-75
2023/01/19 07:54:28;;;;;;;22.73;8.10;;;2.40;99.90;;;;;;5035805;28;20546;-75
2023/01/19 07:56:55;;;;;;;20.03;8.60;;;2.30;99.90;;;;;;5032673;28;20424;-75
2023/01/19 07:59:21;;;;;;;21.27;10.87;;;2.30;99.90;;;;;;5026109;28;20044;-74
2023/01/19 08:01:47;;;;;;;22.27;10.17;;;2.30;99.90;;;;;;5040972;28;20043;-75
2023/01/19 08:04:14;;;;;;;21.60;9.93;;;2.30;99.90;;;;;;5009198;28;20037;-75
2023/01/19 08:06:44;;;;;;;19.27;9.83;;;2.20;99.90;;;;;;5043888;28;20041;-75
2023/01/19 08:09:10;;;;;;;27.17;11.20;;;2.20;99.90;;;;;;5044368;28;20029;-74
2023/01/19 08:11:37;;;;;;;20.23;9.35;;;2.10;99.90;;;;;;5042268;28;20043;-74
2023/01/19 08:14:03;;;;;;;21.13;10.20;;;2.10;99.90;;;;;;5045601;28;20041;-75
2023/01/19 08:16:30;;;;;;;24.67;9.67;;;2.10;99.90;;;;;;5027344;28;20563;-75
2023/01/19 08:18:56;;;;;;;17.97;10.33;;;2.10;99.90;;;;;;5026886;28;20040;-76
2023/01/19 08:21:22;;;;;;;21.47;10.20;;;2.10;99.90;;;;;;5042561;28;20076;-75
2023/01/19 08:23:53;;;;;;;21.87;11.77;;;2.10;99.90;;;;;;5040356;28;20527;-75
2023/01/19 08:26:31;;;;;;;27.43;11.03;;;2.10;99.90;;;;;;5061167;28;20491;-76
2023/01/19 08:29:01;;;;;;;20.43;10.87;;;2.10;99.90;;;;;;5043117;28;20036;-77
2023/01/19 08:31:27;;;;;;;23.97;9.50;;;2.10;99.90;;;;;;5027435;28;20052;-77
2023/01/19 08:33:54;;;;;;;21.07;11.07;;;2.10;99.90;;;;;;5025271;28;20039;-76
2023/01/19 08:36:21;;;;;;;23.43;11.53;;;2.10;99.90;;;;;;5026086;28;20040;-75
2023/01/19 08:38:47;;;;;;;29.97;13.97;;;2.20;99.90;;;;;;5023554;28;20037;-77
2023/01/19 08:41:15;;;;;;;26.77;12.07;;;2.30;99.90;;;;;;5041992;28;20234;-75
2023/01/19 08:43:43;;;;;;;32.60;15.00;;;2.30;99.90;;;;;;5021359;28;20029;-75
2023/01/19 08:46:10;;;;;;;29.03;14.07;;;2.40;99.90;;;;;;5040500;28;20033;-78
2023/01/19 08:48:36;;;;;;;32.30;14.53;;;2.40;99.90;;;;;;5041929;28;20472;-78
2023/01/19 08:51:03;;;;;;;37.13;15.93;;;2.40;99.90;;;;;;5026121;28;20044;-78
2023/01/19 08:53:29;;;;;;;32.77;13.20;;;2.50;99.90;;;;;;5039890;28;20045;-78
2023/01/19 08:55:58;;;;;;;30.43;13.43;;;2.50;99.90;;;;;;5044581;28;20049;-78
2023/01/19 08:58:25;;;;;;;30.10;12.73;;;2.50;99.90;;;;;;5042324;28;20033;-79
2023/01/19 09:00:52;;;;;;;26.97;11.87;;;2.40;99.90;;;;;;5028458;28;20045;-78
2023/01/19 09:03:21;;;;;;;31.67;13.67;;;2.40;99.90;;;;;;5039802;28;20033;-78
2023/01/19 09:05:47;;;;;;;24.60;11.93;;;2.40;99.90;;;;;;5043913;28;20029;-79
2023/01/19 09:08:14;;;;;;;26.60;12.40;;;2.40;99.90;;;;;;5042160;28;20060;-77
2023/01/19 09:10:46;;;;;;;23.63;11.60;;;2.30;99.90;;;;;;5014749;28;20036;-78
2023/01/19 09:13:13;;;;;;;21.48;12.85;;;2.30;99.90;;;;;;5040062;28;20400;-76
2023/01/19 09:15:41;;;;;;;32.50;14.20;;;2.20;99.90;;;;;;5023717;28;20036;-79
2023/01/19 09:18:12;;;;;;;40.50;15.43;;;2.20;99.90;;;;;;5035170;28;20032;-78
2023/01/19 09:20:41;;;;;;;26.43;14.23;;;2.30;99.90;;;;;;5019244;28;20326;-76
2023/01/19 09:23:20;;;;;;;28.83;14.00;;;2.30;99.90;;;;;;5036030;28;20073;-78
2023/01/19 09:25:47;;;;;;;34.33;17.47;;;2.30;99.90;;;;;;5026968;28;20507;-77
2023/01/19 09:28:16;;;;;;;28.23;14.37;;;2.40;99.90;;;;;;5028302;28;20037;-78
2023/01/19 09:30:43;;;;;;;35.03;16.03;;;2.50;99.90;;;;;;5041864;28;20731;-77
2023/01/19 09:33:13;;;;;;;32.60;16.63;;;2.50;99.90;;;;;;5037348;28;20025;-78
2023/01/19 09:35:41;;;;;;;41.10;18.30;;;2.60;99.90;;;;;;5046145;28;20033;-79
2023/01/19 09:38:09;;;;;;;38.53;20.03;;;2.60;99.90;;;;;;5046241;28;20044;-77
2023/01/19 09:40:51;;;;;;;34.20;17.80;;;2.70;99.90;;;;;;5047017;28;20048;-79
2023/01/19 09:43:26;;;;;;;43.40;19.27;;;2.70;99.90;;;;;;5041811;28;20040;-79
2023/01/19 09:45:59;;;;;;;38.57;17.27;;;2.80;99.90;;;;;;5046880;28;20049;-80
2023/01/19 09:48:25;;;;;;;;;;;2.80;99.90;;;;;;5034419;28;20033;-80
2023/01/19 09:50:54;;;;;;;41.93;18.07;;;2.90;99.90;;;;;;5048094;28;19923;-80
2023/01/19 09:53:49;;;;;;;41.13;16.23;;;3.00;99.90;;;;;;5041332;28;20029;-78
2023/01/19 09:56:21;;;;;;;34.23;15.40;;;3.10;99.90;;;;;;5046629;28;20469;-79
2023/01/19 09:58:49;;;;;;;32.13;14.00;;;3.20;99.90;;;;;;5030524;28;20036;-80
2023/01/19 10:01:40;;;;;;;25.97;13.30;;;3.20;99.90;;;;;;5026415;28;20044;-79
2023/01/19 10:04:36;;;;;;;35.33;13.23;;;3.30;99.90;;;;;;5033166;28;20064;-79
2023/01/19 10:07:23;;;;;;;27.48;10.82;;;3.60;99.90;;;;;;5045390;28;20369;-79
2023/01/19 10:10:04;;;;;;;24.77;9.90;;;3.90;99.90;;;;;;5046296;28;20037;-80
2023/01/19 10:12:54;;;;;;;22.45;7.60;;;4.10;99.90;;;;;;5023079;28;20048;-75
2023/01/19 10:15:41;;;;;;;27.27;6.63;;;4.40;99.90;;;;;;5030727;28;20043;-79
2023/01/19 10:18:33;;;;;;;14.70;6.13;;;4.60;99.90;;;;;;5046954;28;20040;-79
2023/01/19 10:21:21;;;;;;;14.27;5.47;;;4.60;99.90;;;;;;5030322;28;20060;-77
2023/01/19 10:23:51;;;;;;;15.93;5.40;;;4.60;99.90;;;;;;5045618;28;20045;-78
2023/01/19 10:26:40;;;;;;;19.95;4.68;;;4.70;99.90;;;;;;5031080;28;20037;-80
2023/01/19 10:29:18;;;;;;;12.45;3.35;;;5.00;99.90;;;;;;5047490;28;20036;-80
2023/01/19 10:31:46;;;;;;;12.10;2.70;;;5.50;99.90;;;;;;5043553;28;20040;-81
2023/01/19 10:34:18;;;;;;;9.18;1.98;;;6.00;99.90;;;;;;5028107;28;20029;-80
2023/01/19 10:36:47;;;;;;;10.52;2.10;;;6.20;99.90;;;;;;5011758;28;20053;-80
2023/01/19 10:39:16;;;;;;;11.65;2.05;;;6.50;99.90;;;;;;5028716;28;20040;-80
2023/01/19 10:41:48;;;;;;;8.98;1.65;;;6.70;99.90;;;;;;5041321;28;20373;-79
2023/01/19 10:44:26;;;;;;;4.28;0.98;;;6.80;99.90;;;;;;5045145;28;20502;-81
2023/01/19 10:46:56;;;;;;;7.28;1.58;;;7.00;99.90;;;;;;5029017;28;20420;-79
2023/01/19 10:49:38;;;;;;;10.05;2.17;;;7.20;99.90;;;;;;5028883;28;20040;-78
2023/01/19 10:52:07;;;;;;;10.18;1.58;;;7.40;99.90;;;;;;5039903;28;20033;-77
2023/01/19 10:54:36;;;;;;;10.18;1.67;;;7.50;99.90;;;;;;5043481;28;20472;-81
2023/01/19 10:57:06;;;;;;;11.60;1.65;;;7.40;99.90;;;;;;5043674;28;20033;-81
2023/01/19 10:59:48;;;;;;;10.77;1.48;;;7.00;99.90;;;;;;5024110;28;20511;-80
2023/01/19 11:02:26;;;;;;;15.45;3.38;;;6.70;99.90;;;;;;5021899;28;20032;-80
2023/01/19 11:05:23;;;;;;;15.18;5.40;;;6.30;99.90;;;;;;5012646;28;20155;-81
2023/01/19 11:07:49;;;;;;;13.88;5.45;;;5.90;99.90;;;;;;5028759;28;20040;-80
2023/01/19 11:10:20;;;;;;;12.65;4.50;;;5.60;99.90;;;;;;5010762;28;20157;-75
2023/01/19 11:13:06;;;;;;;14.50;5.70;;;5.40;99.90;;;;;;5001903;28;20514;-78
2023/01/19 11:15:42;;;;;;;15.23;6.18;;;5.30;99.90;;;;;;5022037;28;20048;-79
2023/01/19 11:18:28;;;;;;;19.33;7.50;;;5.10;99.90;;;;;;5038273;28;20029;-77
2023/01/19 11:20:56;;;;;;;22.27;8.55;;;5.00;99.90;;;;;;5018695;28;20037;-75
2023/01/19 11:23:49;;;;;;;24.98;9.68;;;4.90;99.90;;;;;;5018713;28;20053;-79
2023/01/19 11:26:26;;;;;;;17.48;9.00;;;4.90;99.90;;;;;;5025170;28;20036;-79
2023/01/19 11:28:54;;;;;;;22.67;9.27;;;4.80;99.90;;;;;;5027402;28;20049;-79
2023/01/19 11:31:32;;;;;;;25.75;10.43;;;4.80;99.90;;;;;;5038876;28;20052;-79
2023/01/19 11:34:21;;;;;;;25.38;9.95;;;4.70;99.90;;;;;;5039361;28;21052;-79
2023/01/19 11:37:00;;;;;;;18.20;9.07;;;4.70;99.90;;;;;;5028235;28;20045;-80
2023/01/19 11:39:29;;;;;;;27.23;9.90;;;4.60;99.90;;;;;;5044194;28;20044;-76
2023/01/19 11:42:01;;;;;;;20.38;9.88;;;4.60;99.90;;;;;;5041548;28;20040;-81
2023/01/19 11:44:45;;;;;;;21.67;10.38;;;4.50;99.90;;;;;;5043206;28;20276;-79
2023/01/19 11:47:17;;;;;;;20.85;10.90;;;4.50;99.90;;;;;;5044177;28;20040;-81
2023/01/19 11:49:58;;;;;;;23.20;10.65;;;4.50;99.90;;;;;;5026167;28;20496;-80
2023/01/19 11:52:38;;;;;;;21.80;10.13;;;4.60;99.90;;;;;;5015584;28;20499;-82
2023/01/19 11:55:35;;;;;;;19.02;11.32;;;4.60;99.90;;;;;;5027997;28;20426;-80
2023/01/19 11:58:03;;;;;;;24.48;13.45;;;4.70;99.90;;;;;;5040899;28;20068;-79
2023/01/19 12:00:41;;;;;;;34.08;16.00;;;4.70;99.90;;;;;;5036204;28;20476;-80
2023/01/19 12:03:14;;;;;;;30.30;15.35;;;4.70;99.90;;;;;;5030968;28;20443;-81
2023/01/19 12:05:44;;;;;;;24.42;14.57;;;4.80;99.90;;;;;;5026278;28;20559;-79
2023/01/19 12:08:20;;;;;;;29.80;15.25;;;4.80;99.90;;;;;;5045490;28;20033;-78
2023/01/19 12:10:48;;;;;;;33.75;17.00;;;4.90;99.90;;;;;;5045861;28;20029;-78
2023/01/19 12:13:22;;;;;;;37.85;16.25;;;4.90;99.90;;;;;;5044721;28;20048;-79
2023/01/19 12:16:10;;;;;;;35.25;16.17;;;5.00;99.90;;;;;;5043455;28;20044;-80
2023/01/19 12:18:44;;;;;;;23.95;16.35;;;5.00;99.90;;;;;;5031952;28;20127;-80
2023/01/19 12:21:10;;;;;;;25.67;16.73;;;4.90;99.90;;;;;;5038673;28;20040;-75
2023/01/19 12:24:02;;;;;;;32.50;19.45;;;5.10;99.90;;;;;;5040982;28;20040;-78
2023/01/19 12:26:41;;;;;;;38.70;19.17;;;5.30;99.90;;;;;;5026164;28;20037;-78
2023/01/19 12:29:12;;;;;;;31.63;18.70;;;5.40;99.90;;;;;;5045103;28;20044;-78
2023/01/19 12:31:41;;;;;;;33.30;18.80;;;5.40;99.90;;;;;;5040843;28;20044;-79
2023/01/19 12:34:30;;;;;;;31.90;16.90;;;5.30;99.90;;;;;;5024885;28;20040;-78
2023/01/19 12:37:05;;;;;;;22.33;13.48;;;5.30;99.90;;;;;;5043867;28;20040;-78
2023/01/19 12:39:33;;;;;;;29.27;15.45;;;5.20;99.90;;;;;;5046225;28;20041;-77
2023/01/19 12:42:11;;;;;;;30.75;14.55;;;5.10;99.90;;;;;;5041061;28;20507;-79
2023/01/19 12:44:38;;;;;;;27.80;14.45;;;5.00;99.90;;;;;;5041852;28;20472;-78
2023/01/19 12:47:11;;;;;;;22.45;11.40;;;5.00;99.90;;;;;;5045623;28;20039;-78
2023/01/19 12:49:45;;;;;;;29.73;12.98;;;4.90;99.90;;;;;;5046077;28;20037;-77
2023/01/19 12:52:29;;;;;;;30.55;14.05;;;4.90;99.90;;;;;;5042670;28;20033;-78
2023/01/19 12:55:16;;;;;;;29.40;15.70;;;5.00;99.90;;;;;;5011566;28;20041;-79
2023/01/19 12:57:57;;;;;;;25.50;13.85;;;5.00;99.90;;;;;;5051213;28;20056;-78
2023/01/19 13:00:23;;;;;;;26.27;13.00;;;5.00;99.90;;;;;;5046741;28;20037;-79
2023/01/19 13:02:52;;;;;;;26.38;14.32;;;5.00;99.90;;;;;;5025425;28;20029;-79
2023/01/19 13:05:37;;;;;;;22.05;11.25;;;5.00;99.90;;;;;;5032843;28;20048;-78
2023/01/19 13:08:04;;;;;;;21.70;11.60;;;5.00;99.90;;;;;;5048591;28;20025;-77